sensor_id;sensor_type;location;lat;lon;timestamp;temperature;humidity
53645;DHT22;39547;45.554;12.068;2023-06-14T00:05:19;20.30;70.80
53645;DHT22;39547;45.554;12.068;2023-06-14T00:11:20;20.30;70.70
53645;DHT22;39547;45.554;12.068;2023-06-14T00:17:22;20.20;71.30
53645;DHT22;39547;45.554;12.068;2023-06-14T00:23:23;20.20;71.40
53645;DHT22;39547;45.554;12.068;2023-06-14T00:29:24;20.10;71.30
53645;DHT22;39547;45.554;12.068;2023-06-14T00:35:26;20.10;71.60
53645;DHT22;39547;45.554;12.068;2023-06-14T00:41:27;20.00;71.70
53645;DHT22;39547;45.554;12.068;2023-06-14T00:47:28;19.90;71.70
53645;DHT22;39547;45.554;12.068;2023-06-14T00:53:30;19.90;71.90
53645;DHT22;39547;45.554;12.068;2023-06-14T00:59:35;19.80;72.50
53645;DHT22;39547;45.554;12.068;2023-06-14T01:05:39;19.80;72.30
53645;DHT22;39547;45.554;12.068;2023-06-14T01:18:00;19.70;72.80
53645;DHT22;39547;45.554;12.068;2023-06-14T01:24:04;19.70;73.60
53645;DHT22;39547;45.554;12.068;2023-06-14T01:30:05;19.70;73.30
53645;DHT22;39547;45.554;12.068;2023-06-14T01:36:07;19.70;73.80
53645;DHT22;39547;45.554;12.068;2023-06-14T01:42:09;19.70;73.30
53645;DHT22;39547;45.554;12.068;2023-06-14T01:48:12;19.70;73.50
53645;DHT22;39547;45.554;12.068;2023-06-14T01:54:14;19.70;73.40
53645;DHT22;39547;45.554;12.068;2023-06-14T02:00:16;19.70;74.10
53645;DHT22;39547;45.554;12.068;2023-06-14T02:06:19;19.70;73.60
53645;DHT22;39547;45.554;12.068;2023-06-14T02:12:20;19.70;73.50
53645;DHT22;39547;45.554;12.068;2023-06-14T02:18:21;19.70;73.70
53645;DHT22;39547;45.554;12.068;2023-06-14T02:24:23;19.80;73.50
53645;DHT22;39547;45.554;12.068;2023-06-14T02:30:27;19.70;73.50
53645;DHT22;39547;45.554;12.068;2023-06-14T02:36:31;19.70;73.70
53645;DHT22;39547;45.554;12.068;2023-06-14T02:42:34;19.70;73.60
53645;DHT22;39547;45.554;12.068;2023-06-14T02:48:36;19.70;74.00
53645;DHT22;39547;45.554;12.068;2023-06-14T02:54:37;19.60;73.80
53645;DHT22;39547;45.554;12.068;2023-06-14T03:00:39;19.60;74.30
53645;DHT22;39547;45.554;12.068;2023-06-14T03:06:42;19.50;74.10
53645;DHT22;39547;45.554;12.068;2023-06-14T03:12:45;19.40;73.90
53645;DHT22;39547;45.554;12.068;2023-06-14T03:18:51;19.40;74.00
53645;DHT22;39547;45.554;12.068;2023-06-14T03:24:53;19.40;74.50
53645;DHT22;39547;45.554;12.068;2023-06-14T03:30:55;19.30;74.20
53645;DHT22;39547;45.554;12.068;2023-06-14T03:36:58;19.30;74.30
53645;DHT22;39547;45.554;12.068;2023-06-14T03:42:59;19.40;75.00
53645;DHT22;39547;45.554;12.068;2023-06-14T03:49:01;19.30;74.20
53645;DHT22;39547;45.554;12.068;2023-06-14T03:55:04;19.30;74.40
53645;DHT22;39547;45.554;12.068;2023-06-14T04:01:06;19.30;74.60
53645;DHT22;39547;45.554;12.068;2023-06-14T04:07:08;19.20;74.70
53645;DHT22;39547;45.554;12.068;2023-06-14T04:13:09;19.30;74.80
53645;DHT22;39547;45.554;12.068;2023-06-14T04:19:14;19.30;74.80
53645;DHT22;39547;45.554;12.068;2023-06-14T04:25:16;19.40;74.80
53645;DHT22;39547;45.554;12.068;2023-06-14T04:31:19;19.40;74.80
53645;DHT22;39547;45.554;12.068;2023-06-14T04:37:26;19.50;74.60
53645;DHT22;39547;45.554;12.068;2023-06-14T04:43:29;19.50;74.90
53645;DHT22;39547;45.554;12.068;2023-06-14T04:49:32;19.50;74.70
53645;DHT22;39547;45.554;12.068;2023-06-14T04:55:35;19.60;74.80
53645;DHT22;39547;45.554;12.068;2023-06-14T05:01:38;19.70;74.60
53645;DHT22;39547;45.554;12.068;2023-06-14T05:07:40;19.80;74.40
53645;DHT22;39547;45.554;12.068;2023-06-14T05:13:42;19.90;74.40
53645;DHT22;39547;45.554;12.068;2023-06-14T05:19:45;20.10;74.30
53645;DHT22;39547;45.554;12.068;2023-06-14T05:25:46;20.20;73.80
53645;DHT22;39547;45.554;12.068;2023-06-14T05:31:47;20.40;73.60
53645;DHT22;39547;45.554;12.068;2023-06-14T05:37:48;20.50;73.60
53645;DHT22;39547;45.554;12.068;2023-06-14T05:43:50;20.70;73.30
53645;DHT22;39547;45.554;12.068;2023-06-14T05:49:52;20.80;73.30
53645;DHT22;39547;45.554;12.068;2023-06-14T05:55:53;21.00;72.80
53645;DHT22;39547;45.554;12.068;2023-06-14T06:01:55;21.00;72.70
53645;DHT22;39547;45.554;12.068;2023-06-14T06:07:57;21.10;72.50
53645;DHT22;39547;45.554;12.068;2023-06-14T06:13:58;21.00;72.50
53645;DHT22;39547;45.554;12.068;2023-06-14T06:19:59;21.10;72.60
53645;DHT22;39547;45.554;12.068;2023-06-14T06:26:01;21.30;72.50
53645;DHT22;39547;45.554;12.068;2023-06-14T06:32:02;21.60;71.90
53645;DHT22;39547;45.554;12.068;2023-06-14T06:38:03;21.80;71.30
53645;DHT22;39547;45.554;12.068;2023-06-14T06:44:05;22.00;71.00
53645;DHT22;39547;45.554;12.068;2023-06-14T06:50:08;22.20;70.70
53645;DHT22;39547;45.554;12.068;2023-06-14T06:56:09;22.40;70.20
53645;DHT22;39547;45.554;12.068;2023-06-14T07:02:11;22.60;69.40
53645;DHT22;39547;45.554;12.068;2023-06-14T07:08:12;22.70;68.70
53645;DHT22;39547;45.554;12.068;2023-06-14T07:14:13;22.70;67.90
53645;DHT22;39547;45.554;12.068;2023-06-14T07:20:14;22.90;67.60
53645;DHT22;39547;45.554;12.068;2023-06-14T07:26:16;23.00;67.20
53645;DHT22;39547;45.554;12.068;2023-06-14T07:32:18;23.20;67.00
53645;DHT22;39547;45.554;12.068;2023-06-14T07:38:19;23.40;66.40
53645;DHT22;39547;45.554;12.068;2023-06-14T07:44:20;23.60;66.20
53645;DHT22;39547;45.554;12.068;2023-06-14T07:50:22;23.70;65.60
53645;DHT22;39547;45.554;12.068;2023-06-14T07:56:23;23.90;65.10
53645;DHT22;39547;45.554;12.068;2023-06-14T08:02:24;24.10;64.10
53645;DHT22;39547;45.554;12.068;2023-06-14T08:08:26;24.20;63.10
53645;DHT22;39547;45.554;12.068;2023-06-14T08:14:27;24.40;61.40
53645;DHT22;39547;45.554;12.068;2023-06-14T08:20:29;24.60;61.80
53645;DHT22;39547;45.554;12.068;2023-06-14T08:26:32;24.60;59.60
53645;DHT22;39547;45.554;12.068;2023-06-14T08:32:33;24.60;61.10
53645;DHT22;39547;45.554;12.068;2023-06-14T08:38:35;24.70;60.70
53645;DHT22;39547;45.554;12.068;2023-06-14T08:44:36;25.00;60.10
53645;DHT22;39547;45.554;12.068;2023-06-14T08:50:37;25.10;59.10
53645;DHT22;39547;45.554;12.068;2023-06-14T08:56:41;25.20;58.90
53645;DHT22;39547;45.554;12.068;2023-06-14T09:02:42;25.30;56.60
53645;DHT22;39547;45.554;12.068;2023-06-14T09:08:46;25.50;57.70
53645;DHT22;39547;45.554;12.068;2023-06-14T09:14:51;25.70;56.50
53645;DHT22;39547;45.554;12.068;2023-06-14T09:20:52;25.90;55.70
53645;DHT22;39547;45.554;12.068;2023-06-14T09:26:54;26.10;55.20
53645;DHT22;39547;45.554;12.068;2023-06-14T09:32:55;26.20;55.60
53645;DHT22;39547;45.554;12.068;2023-06-14T09:39:03;26.30;55.40
53645;DHT22;39547;45.554;12.068;2023-06-14T09:45:09;26.50;55.50
53645;DHT22;39547;45.554;12.068;2023-06-14T09:51:12;26.60;55.00
53645;DHT22;39547;45.554;12.068;2023-06-14T09:57:16;26.60;53.80
53645;DHT22;39547;45.554;12.068;2023-06-14T10:03:21;26.60;54.20
53645;DHT22;39547;45.554;12.068;2023-06-14T10:09:23;26.80;52.50
53645;DHT22;39547;45.554;12.068;2023-06-14T10:15:32;27.00;51.90
53645;DHT22;39547;45.554;12.068;2023-06-14T10:27:37;27.30;51.50
53645;DHT22;39547;45.554;12.068;2023-06-14T10:33:49;27.60;51.10
53645;DHT22;39547;45.554;12.068;2023-06-14T10:39:53;27.80;50.50
53645;DHT22;39547;45.554;12.068;2023-06-14T10:46:14;27.90;49.30
53645;DHT22;39547;45.554;12.068;2023-06-14T10:52:16;27.80;48.10
53645;DHT22;39547;45.554;12.068;2023-06-14T10:58:20;27.80;49.40
53645;DHT22;39547;45.554;12.068;2023-06-14T11:04:21;28.00;48.20
53645;DHT22;39547;45.554;12.068;2023-06-14T11:10:40;28.30;48.20
53645;DHT22;39547;45.554;12.068;2023-06-14T11:16:42;28.60;46.80
53645;DHT22;39547;45.554;12.068;2023-06-14T11:22:43;28.60;47.70
53645;DHT22;39547;45.554;12.068;2023-06-14T11:28:44;28.90;47.80
53645;DHT22;39547;45.554;12.068;2023-06-14T11:34:46;29.20;46.70
53645;DHT22;39547;45.554;12.068;2023-06-14T11:40:48;29.40;44.70
53645;DHT22;39547;45.554;12.068;2023-06-14T11:46:49;29.60;45.30
53645;DHT22;39547;45.554;12.068;2023-06-14T11:52:53;29.50;44.80
53645;DHT22;39547;45.554;12.068;2023-06-14T11:58:55;29.80;44.80
53645;DHT22;39547;45.554;12.068;2023-06-14T12:05:03;30.00;46.00
53645;DHT22;39547;45.554;12.068;2023-06-14T12:11:05;30.50;45.80
53645;DHT22;39547;45.554;12.068;2023-06-14T12:17:07;31.10;45.30
53645;DHT22;39547;45.554;12.068;2023-06-14T12:23:09;31.30;44.10
53645;DHT22;39547;45.554;12.068;2023-06-14T12:29:10;31.10;43.40
53645;DHT22;39547;45.554;12.068;2023-06-14T12:35:15;31.30;44.30
53645;DHT22;39547;45.554;12.068;2023-06-14T12:41:17;31.30;42.80
53645;DHT22;39547;45.554;12.068;2023-06-14T12:47:19;31.40;43.00
53645;DHT22;39547;45.554;12.068;2023-06-14T12:53:20;31.50;42.00
53645;DHT22;39547;45.554;12.068;2023-06-14T12:59:22;32.80;39.80
53645;DHT22;39547;45.554;12.068;2023-06-14T13:05:23;33.80;38.30
53645;DHT22;39547;45.554;12.068;2023-06-14T13:11:24;34.40;37.80
53645;DHT22;39547;45.554;12.068;2023-06-14T13:17:26;34.50;36.60
53645;DHT22;39547;45.554;12.068;2023-06-14T13:23:27;34.70;35.90
53645;DHT22;39547;45.554;12.068;2023-06-14T13:29:28;35.20;34.80
53645;DHT22;39547;45.554;12.068;2023-06-14T13:35:31;35.60;34.20
53645;DHT22;39547;45.554;12.068;2023-06-14T13:41:32;36.30;34.30
53645;DHT22;39547;45.554;12.068;2023-06-14T13:47:35;36.90;33.30
53645;DHT22;39547;45.554;12.068;2023-06-14T13:53:37;37.40;32.00
53645;DHT22;39547;45.554;12.068;2023-06-14T13:59:38;36.80;30.10
53645;DHT22;39547;45.554;12.068;2023-06-14T14:05:40;37.10;31.50
53645;DHT22;39547;45.554;12.068;2023-06-14T14:11:41;36.70;31.30
53645;DHT22;39547;45.554;12.068;2023-06-14T14:17:43;36.90;31.50
53645;DHT22;39547;45.554;12.068;2023-06-14T14:23:44;37.30;32.10
53645;DHT22;39547;45.554;12.068;2023-06-14T14:29:46;37.80;31.80
53645;DHT22;39547;45.554;12.068;2023-06-14T14:35:47;37.80;32.10
53645;DHT22;39547;45.554;12.068;2023-06-14T14:41:49;37.80;32.20
53645;DHT22;39547;45.554;12.068;2023-06-14T14:47:51;38.00;31.40
53645;DHT22;39547;45.554;12.068;2023-06-14T14:53:52;38.30;31.30
53645;DHT22;39547;45.554;12.068;2023-06-14T14:59:53;38.60;30.70
53645;DHT22;39547;45.554;12.068;2023-06-14T15:05:56;37.80;31.40
53645;DHT22;39547;45.554;12.068;2023-06-14T15:11:57;37.20;32.30
53645;DHT22;39547;45.554;12.068;2023-06-14T15:17:59;37.00;32.20
53645;DHT22;39547;45.554;12.068;2023-06-14T15:24:01;36.60;33.00
53645;DHT22;39547;45.554;12.068;2023-06-14T15:30:02;35.70;34.10
53645;DHT22;39547;45.554;12.068;2023-06-14T15:36:05;33.80;35.40
53645;DHT22;39547;45.554;12.068;2023-06-14T15:42:06;32.10;37.40
53645;DHT22;39547;45.554;12.068;2023-06-14T15:48:08;30.90;39.60
53645;DHT22;39547;45.554;12.068;2023-06-14T15:54:10;30.00;41.60
53645;DHT22;39547;45.554;12.068;2023-06-14T16:00:11;29.40;42.70
53645;DHT22;39547;45.554;12.068;2023-06-14T16:06:13;29.00;43.20
53645;DHT22;39547;45.554;12.068;2023-06-14T16:12:14;28.60;43.50
53645;DHT22;39547;45.554;12.068;2023-06-14T16:18:15;28.30;42.20
53645;DHT22;39547;45.554;12.068;2023-06-14T16:24:17;28.00;42.80
53645;DHT22;39547;45.554;12.068;2023-06-14T16:30:18;27.90;42.80
53645;DHT22;39547;45.554;12.068;2023-06-14T16:36:23;27.90;42.70
53645;DHT22;39547;45.554;12.068;2023-06-14T16:42:24;27.80;42.60
53645;DHT22;39547;45.554;12.068;2023-06-14T16:48:25;27.70;41.80
53645;DHT22;39547;45.554;12.068;2023-06-14T16:54:27;27.50;41.50
53645;DHT22;39547;45.554;12.068;2023-06-14T17:00:28;27.30;42.10
53645;DHT22;39547;45.554;12.068;2023-06-14T17:06:29;27.30;42.70
53645;DHT22;39547;45.554;12.068;2023-06-14T17:12:31;27.20;42.10
53645;DHT22;39547;45.554;12.068;2023-06-14T17:18:35;26.90;42.70
53645;DHT22;39547;45.554;12.068;2023-06-14T17:24:37;26.70;43.00
53645;DHT22;39547;45.554;12.068;2023-06-14T17:30:38;26.60;44.30
53645;DHT22;39547;45.554;12.068;2023-06-14T17:36:40;26.40;44.40
53645;DHT22;39547;45.554;12.068;2023-06-14T17:42:41;26.30;45.10
53645;DHT22;39547;45.554;12.068;2023-06-14T17:48:42;26.10;46.00
53645;DHT22;39547;45.554;12.068;2023-06-14T17:54:44;25.90;46.50
53645;DHT22;39547;45.554;12.068;2023-06-14T18:00:45;25.80;46.60
53645;DHT22;39547;45.554;12.068;2023-06-14T18:06:46;25.70;46.80
53645;DHT22;39547;45.554;12.068;2023-06-14T18:12:48;25.60;48.00
53645;DHT22;39547;45.554;12.068;2023-06-14T18:18:49;25.50;47.90
53645;DHT22;39547;45.554;12.068;2023-06-14T18:24:52;25.30;48.60
53645;DHT22;39547;45.554;12.068;2023-06-14T18:30:53;25.30;48.00
53645;DHT22;39547;45.554;12.068;2023-06-14T18:36:54;25.20;48.70
53645;DHT22;39547;45.554;12.068;2023-06-14T18:42:57;25.10;49.20
53645;DHT22;39547;45.554;12.068;2023-06-14T18:48:59;24.90;49.20
53645;DHT22;39547;45.554;12.068;2023-06-14T18:55:01;24.80;49.70
53645;DHT22;39547;45.554;12.068;2023-06-14T19:01:03;24.70;49.90
53645;DHT22;39547;45.554;12.068;2023-06-14T19:07:04;24.50;50.50
53645;DHT22;39547;45.554;12.068;2023-06-14T19:13:06;24.30;50.60
53645;DHT22;39547;45.554;12.068;2023-06-14T19:19:11;24.30;50.90
53645;DHT22;39547;45.554;12.068;2023-06-14T19:25:13;24.20;51.30
53645;DHT22;39547;45.554;12.068;2023-06-14T19:31:14;24.10;52.00
53645;DHT22;39547;45.554;12.068;2023-06-14T19:37:15;24.00;51.90
53645;DHT22;39547;45.554;12.068;2023-06-14T19:43:17;23.90;52.40
53645;DHT22;39547;45.554;12.068;2023-06-14T19:49:18;23.80;52.80
53645;DHT22;39547;45.554;12.068;2023-06-14T19:55:19;23.70;53.00
53645;DHT22;39547;45.554;12.068;2023-06-14T20:01:20;23.70;53.50
53645;DHT22;39547;45.554;12.068;2023-06-14T20:07:22;23.70;53.90
53645;DHT22;39547;45.554;12.068;2023-06-14T20:13:24;23.70;54.70
53645;DHT22;39547;45.554;12.068;2023-06-14T20:19:25;23.70;54.40
53645;DHT22;39547;45.554;12.068;2023-06-14T20:25:27;23.70;54.80
53645;DHT22;39547;45.554;12.068;2023-06-14T20:31:28;23.70;55.40
53645;DHT22;39547;45.554;12.068;2023-06-14T20:37:29;23.70;55.90
53645;DHT22;39547;45.554;12.068;2023-06-14T20:43:30;23.70;57.30
53645;DHT22;39547;45.554;12.068;2023-06-14T20:49:32;23.60;58.80
53645;DHT22;39547;45.554;12.068;2023-06-14T20:55:33;23.50;58.20
53645;DHT22;39547;45.554;12.068;2023-06-14T21:01:35;23.50;59.00
53645;DHT22;39547;45.554;12.068;2023-06-14T21:07:36;23.40;59.00
53645;DHT22;39547;45.554;12.068;2023-06-14T21:13:38;23.30;58.50
53645;DHT22;39547;45.554;12.068;2023-06-14T21:19:39;23.30;58.70
53645;DHT22;39547;45.554;12.068;2023-06-14T21:25:42;23.20;58.60
53645;DHT22;39547;45.554;12.068;2023-06-14T21:31:43;23.10;59.10
53645;DHT22;39547;45.554;12.068;2023-06-14T21:37:44;23.00;59.60
53645;DHT22;39547;45.554;12.068;2023-06-14T21:43:46;22.90;59.70
53645;DHT22;39547;45.554;12.068;2023-06-14T21:49:47;22.80;60.40
53645;DHT22;39547;45.554;12.068;2023-06-14T21:55:48;22.80;60.40
53645;DHT22;39547;45.554;12.068;2023-06-14T22:01:49;22.70;61.00
53645;DHT22;39547;45.554;12.068;2023-06-14T22:07:51;22.60;61.10
53645;DHT22;39547;45.554;12.068;2023-06-14T22:13:52;22.50;61.20
53645;DHT22;39547;45.554;12.068;2023-06-14T22:19:53;22.30;61.80
53645;DHT22;39547;45.554;12.068;2023-06-14T22:25:55;22.20;62.90
53645;DHT22;39547;45.554;12.068;2023-06-14T22:31:56;22.10;63.30
53645;DHT22;39547;45.554;12.068;2023-06-14T22:37:57;22.00;63.40
53645;DHT22;39547;45.554;12.068;2023-06-14T22:44:01;21.90;64.50
53645;DHT22;39547;45.554;12.068;2023-06-14T22:50:03;21.70;65.50
53645;DHT22;39547;45.554;12.068;2023-06-14T22:56:05;21.30;68.20
53645;DHT22;39547;45.554;12.068;2023-06-14T23:02:06;20.70;71.50
53645;DHT22;39547;45.554;12.068;2023-06-14T23:08:08;20.20;72.90
53645;DHT22;39547;45.554;12.068;2023-06-14T23:14:09;19.90;73.70
53645;DHT22;39547;45.554;12.068;2023-06-14T23:20:11;19.80;74.60
53645;DHT22;39547;45.554;12.068;2023-06-14T23:26:14;19.80;75.20
53645;DHT22;39547;45.554;12.068;2023-06-14T23:32:16;19.80;75.10
53645;DHT22;39547;45.554;12.068;2023-06-14T23:38:17;19.80;75.70
53645;DHT22;39547;45.554;12.068;2023-06-14T23:44:19;19.80;75.90
53645;DHT22;39547;45.554;12.068;2023-06-14T23:50:25;19.70;76.20
53645;DHT22;39547;45.554;12.068;2023-06-14T23:56:26;19.70;76.40
